This is the latest recevied weather packets stored in our database for station/object F5PQL-4. If no packets are shown the sender has not sent any weather packets the latest 1 day(s).
| Time | Temp. | Humidity | Pressure | Rain* | Wind** | Luminosity | Snow |
|---|---|---|---|---|---|---|---|
| 1778106093 | 13.33° C | 66% | 1014.2 hPa | - | - | - | - |
| 1778105193 | 13.89° C | 65% | 1014.1 hPa | - | - | - | - |
| 1778098892 | 15° C | 59% | 1013.3 hPa | - | - | - | - |
| 1778097992 | 15° C | 59% | 1013.1 hPa | - | - | - | - |
| 1778097092 | 15.56° C | 59% | 1013 hPa | - | - | - | - |
| 1778096192 | 15.56° C | 59% | 1012.8 hPa | - | - | - | - |
| 1778091691 | 17.22° C | 55% | 1011.7 hPa | - | - | - | - |
| 1778085395 | 20.56° C | 44% | 1011 hPa | - | - | - | - |
| 1778084495 | 21.67° C | 41% | 1011 hPa | - | - | - | - |
| 1778083595 | 21.67° C | 42% | 1010.9 hPa | - | - | - | - |
| 1778077294 | 26.67° C | 34% | 1011.5 hPa | - | - | - | - |
| 1778076394 | 26.67° C | 37% | 1011.3 hPa | - | - | - | - |
| 1778075494 | 23.33° C | 42% | 1011.7 hPa | - | - | - | - |
| 1778074594 | 20.56° C | 47% | 1012 hPa | - | - | - | - |
| 1778070993 | 21.67° C | 44% | 1012.1 hPa | - | - | - | - |
| 1778068293 | 32.78° C | 33% | 1011.9 hPa | - | - | - | - |
| 1778067393 | 28.33° C | 37% | 1012.1 hPa | - | - | - | - |
| 1778062892 | 15.56° C | 70% | 1012.8 hPa | - | - | - | - |
| 1778061992 | 16.11° C | 71% | 1012.6 hPa | - | - | - | - |
| 1778061092 | 15.56° C | 70% | 1012.5 hPa | - | - | - | - |
| 1778060192 | 16.67° C | 71% | 1012.5 hPa | - | - | - | - |
| 1778059292 | 16.11° C | 71% | 1012.4 hPa | - | - | - | - |
| 1778058392 | 15.56° C | 72% | 1012.3 hPa | - | - | - | - |
| 1778057492 | 14.44° C | 74% | 1012.1 hPa | - | - | - | - |
| 1778055692 | 12.78° C | 77% | 1011.7 hPa | - | - | - | - |
* Rain since midnight (hover to see other rain measurements)
** Current wind speed in m/s (hover to see current wind gust speed)